Time;durP1;ratioP1;P1;durP2;ratioP2;P2;SDS_P1;SDS_P2;PMS_P1;PMS_P2;Temp;Humidity;BMP_temperature;BMP_pressure;BME280_temperature;BME280_humidity;BME280_pressure;Samples;Min_cycle;Max_cycle;Signal;HPM_P1;HPM_P2
2023/03/23 00:02:00;;;;;;;2.13;1.30;;;20.00;65.70;;;;;;4978043;28;20858;-95
2023/03/23 00:04:30;;;;;;;1.40;1.00;;;20.10;65.80;;;;;;4979907;28;20495;-95
2023/03/23 00:06:57;;;;;;;1.97;1.10;;;20.10;65.80;;;;;;4978692;28;20437;-95
2023/03/23 00:09:24;;;;;;;1.10;0.70;;;20.00;65.70;;;;;;4978809;28;20485;-95
2023/03/23 00:11:56;;;;;;;2.17;0.90;;;20.10;65.90;;;;;;4990107;28;20504;-96
2023/03/23 00:16:50;;;;;;;1.40;1.10;;;20.00;65.70;;;;;;4985183;23;20483;-95
2023/03/23 00:19:19;;;;;;;1.00;0.70;;;20.00;65.70;;;;;;4976329;28;20228;-95
2023/03/23 00:21:46;;;;;;;1.30;0.90;;;20.00;65.70;;;;;;4977981;28;20464;-96
2023/03/23 00:24:16;;;;;;;1.30;0.80;;;20.00;66.50;;;;;;4977273;28;20496;-96
2023/03/23 00:26:45;;;;;;;1.20;0.87;;;20.00;65.70;;;;;;4979090;28;20441;-96
2023/03/23 00:29:15;;;;;;;1.10;0.70;;;20.00;65.70;;;;;;4978072;28;20488;-96
2023/03/23 00:31:46;;;;;;;1.10;0.83;;;20.00;65.70;;;;;;4979068;28;20880;-96
2023/03/23 00:34:18;;;;;;;1.10;0.90;;;20.00;65.70;;;;;;4980257;28;20477;-94
2023/03/23 00:36:46;;;;;;;1.30;0.90;;;20.10;65.80;;;;;;4977425;28;20901;-95
2023/03/23 00:39:15;;;;;;;2.43;1.53;;;20.10;65.80;;;;;;4978976;28;20464;-96
2023/03/23 00:41:42;;;;;;;1.23;0.90;;;20.10;65.80;;;;;;4977364;28;20464;-96
2023/03/23 00:44:10;;;;;;;1.77;0.87;;;20.00;65.70;;;;;;4980240;28;20468;-95
2023/03/23 00:46:44;;;;;;;2.80;0.80;;;20.00;65.70;;;;;;4977716;28;20552;-96
2023/03/23 00:49:12;;;;;;;1.27;0.90;;;20.00;65.60;;;;;;4977768;28;20451;-96
2023/03/23 00:51:40;;;;;;;1.00;0.70;;;20.00;65.60;;;;;;4978236;28;20488;-95
2023/03/23 00:54:07;;;;;;;1.00;0.80;;;20.00;65.70;;;;;;4976416;28;20917;-95
2023/03/23 00:56:35;;;;;;;1.33;1.00;;;20.00;65.70;;;;;;4976426;28;20535;-95
2023/03/23 00:59:02;;;;;;;1.40;1.03;;;20.00;65.70;;;;;;4987886;23;20494;-95
2023/03/23 01:01:29;;;;;;;1.37;0.77;;;20.00;65.70;;;;;;4996445;28;20465;-95
2023/03/23 01:04:00;;;;;;;1.10;0.90;;;20.00;65.60;;;;;;4996453;28;20448;-95
2023/03/23 01:06:30;;;;;;;1.10;0.80;;;20.00;65.60;;;;;;4995922;28;20867;-94
2023/03/23 01:09:00;;;;;;;1.10;1.00;;;20.00;65.60;;;;;;4995803;28;20447;-94
2023/03/23 01:11:27;;;;;;;1.00;0.80;;;19.90;65.50;;;;;;4996210;28;20479;-94
2023/03/23 01:13:54;;;;;;;1.00;0.80;;;20.00;65.60;;;;;;4995733;28;20452;-94
2023/03/23 01:16:22;;;;;;;1.67;1.17;;;20.00;65.70;;;;;;4999227;28;20463;-94
2023/03/23 01:18:49;;;;;;;1.47;0.80;;;19.80;65.30;;;;;;4995857;28;20462;-94
2023/03/23 01:21:18;;;;;;;1.27;0.90;;;19.90;65.50;;;;;;4995092;28;20472;-95
2023/03/23 01:23:48;;;;;;;1.10;0.80;;;19.90;65.50;;;;;;4995777;28;20535;-94
2023/03/23 01:26:19;;;;;;;1.17;0.90;;;19.90;65.50;;;;;;4996829;28;20908;-94
2023/03/23 01:28:46;;;;;;;1.50;1.00;;;19.90;65.50;;;;;;4978632;28;20455;-95
2023/03/23 01:31:18;;;;;;;1.23;1.00;;;19.90;65.50;;;;;;4996942;28;20437;-95
2023/03/23 01:33:45;;;;;;;1.00;0.77;;;19.90;65.50;;;;;;4995025;28;20479;-95
2023/03/23 01:36:14;;;;;;;1.50;0.80;;;19.90;65.50;;;;;;4998211;28;20459;-95
2023/03/23 01:38:44;;;;;;;1.53;0.93;;;19.90;65.50;;;;;;4994796;28;20452;-95
2023/03/23 01:41:12;;;;;;;1.17;1.07;;;19.90;65.50;;;;;;4995639;28;20798;-95
2023/03/23 01:43:57;;;;;;;1.10;0.80;;;20.00;65.60;;;;;;4995711;28;20468;-94
2023/03/23 01:46:26;;;;;;;1.20;0.90;;;19.90;65.50;;;;;;5011957;28;20448;-94
2023/03/23 01:48:53;;;;;;;1.10;0.90;;;20.10;65.70;;;;;;5018946;28;20467;-94
2023/03/23 01:51:22;;;;;;;1.10;0.90;;;19.90;65.50;;;;;;5018925;28;20454;-94
2023/03/23 01:53:53;;;;;;;1.13;0.77;;;19.90;65.50;;;;;;5007231;28;20479;-94
2023/03/23 01:56:25;;;;;;;1.20;1.00;;;19.90;65.50;;;;;;4997130;28;20471;-95
2023/03/23 01:58:55;;;;;;;2.17;1.17;;;19.90;65.50;;;;;;4995678;28;20547;-95
2023/03/23 02:01:25;;;;;;;1.33;0.90;;;19.90;65.50;;;;;;4996921;28;20483;-95
2023/03/23 02:03:53;;;;;;;1.60;0.90;;;19.90;65.50;;;;;;4997162;28;20884;-94
2023/03/23 02:06:21;;;;;;;1.10;0.97;;;19.90;65.40;;;;;;4998671;28;20484;-94
2023/03/23 02:08:50;;;;;;;1.00;0.77;;;19.90;65.40;;;;;;4996187;28;20546;-94
2023/03/23 02:11:19;;;;;;;1.20;0.83;;;19.90;65.40;;;;;;4995539;28;20531;-95
2023/03/23 02:13:47;;;;;;;1.00;0.77;;;19.90;65.40;;;;;;4998072;28;20483;-94
2023/03/23 02:16:22;;;;;;;1.10;0.83;;;19.90;65.50;;;;;;4999949;28;20952;-94
2023/03/23 02:18:59;;;;;;;1.30;0.87;;;19.90;65.50;;;;;;5000168;28;20527;-94
2023/03/23 02:21:56;;;;;;;1.10;0.90;;;19.90;65.40;;;;;;4998452;28;20525;-95
2023/03/23 02:25:05;;;;;;;1.10;0.90;;;19.90;65.40;;;;;;4966031;28;20447;-95
2023/03/23 02:31:13;;;;;;;1.10;0.97;;;19.90;65.50;;;;;;4999580;28;20558;-94
2023/03/23 02:33:59;;;;;;;1.20;0.90;;;19.90;65.50;;;;;;5002675;28;20555;-94
2023/03/23 02:36:31;;;;;;;1.00;0.70;;;19.90;65.50;;;;;;5000939;28;20523;-95
2023/03/23 02:39:05;;;;;;;1.03;0.80;;;19.80;65.30;;;;;;5000845;28;20491;-95
2023/03/23 02:41:39;;;;;;;1.40;0.93;;;19.90;65.40;;;;;;4999557;28;20443;-96
2023/03/23 02:44:08;;;;;;;1.00;0.80;;;19.90;65.40;;;;;;5002546;28;20450;-94
2023/03/23 02:46:37;;;;;;;1.00;0.80;;;19.90;65.40;;;;;;4999835;28;20490;-95
2023/03/23 02:49:08;;;;;;;1.00;0.73;;;19.90;65.40;;;;;;5003131;28;20454;-94
2023/03/23 02:51:36;;;;;;;1.10;0.70;;;19.90;65.40;;;;;;5000457;28;20443;-94
2023/03/23 02:54:05;;;;;;;1.30;0.90;;;19.90;65.40;;;;;;5001625;28;20440;-95
2023/03/23 02:56:33;;;;;;;1.17;0.80;;;19.90;65.40;;;;;;5002654;28;20483;-95
2023/03/23 02:59:00;;;;;;;1.33;0.93;;;20.00;65.50;;;;;;5020883;28;20470;-95
2023/03/23 03:02:00;;;;;;;1.20;0.80;;;19.90;65.40;;;;;;5014580;28;20511;-94
2023/03/23 03:04:41;;;;;;;1.30;0.90;;;19.90;65.40;;;;;;5002890;28;20487;-95
2023/03/23 03:07:22;;;;;;;1.10;0.83;;;19.90;65.40;;;;;;5002442;28;20448;-95
2023/03/23 03:09:52;;;;;;;1.10;0.83;;;19.90;65.40;;;;;;5011601;23;20475;-95
2023/03/23 03:12:25;;;;;;;1.10;0.80;;;19.80;65.20;;;;;;4999175;28;20514;-95
2023/03/23 03:14:59;;;;;;;1.10;0.80;;;19.90;65.30;;;;;;4998182;28;20460;-95
2023/03/23 03:17:30;;;;;;;2.07;0.90;;;19.90;65.40;;;;;;4998682;28;20450;-94
2023/03/23 03:20:04;;;;;;;1.20;0.70;;;19.90;65.40;;;;;;4998978;28;20503;-95
2023/03/23 03:22:37;;;;;;;1.10;0.83;;;19.90;65.40;;;;;;4999167;28;20520;-94
2023/03/23 03:25:05;;;;;;;1.20;0.83;;;19.90;65.30;;;;;;4998384;28;20935;-94
2023/03/23 03:27:34;;;;;;;1.00;0.70;;;19.90;65.40;;;;;;4997503;28;20452;-94
2023/03/23 03:30:04;;;;;;;1.10;0.80;;;19.80;65.20;;;;;;4999737;28;20448;-94
2023/03/23 03:32:43;;;;;;;1.20;0.93;;;19.90;65.30;;;;;;4998332;28;20566;-94
2023/03/23 03:35:12;;;;;;;1.00;0.70;;;19.90;65.40;;;;;;5008218;28;20456;-95
2023/03/23 03:37:40;;;;;;;1.33;1.10;;;20.00;65.50;;;;;;4998539;28;20559;-95
2023/03/23 03:40:11;;;;;;;1.07;0.80;;;19.90;65.40;;;;;;4998442;28;20547;-94
2023/03/23 03:42:39;;;;;;;1.00;0.70;;;19.80;65.20;;;;;;4997733;28;20447;-95
2023/03/23 03:45:08;;;;;;;1.10;1.00;;;19.90;65.40;;;;;;4998173;28;20865;-95
2023/03/23 03:47:35;;;;;;;1.07;0.80;;;19.80;65.20;;;;;;4997104;28;20449;-94
2023/03/23 03:50:10;;;;;;;1.40;0.80;;;19.90;65.30;;;;;;4998412;28;20502;-95
2023/03/23 03:55:55;;;;;;;1.20;0.90;;;19.90;65.30;;;;;;4998054;28;20435;-95
2023/03/23 03:58:22;;;;;;;1.10;0.90;;;19.80;65.20;;;;;;4997259;28;20456;-95
2023/03/23 04:00:49;;;;;;;1.30;1.20;;;19.80;65.20;;;;;;4997091;28;20460;-95
2023/03/23 04:03:17;;;;;;;1.30;0.90;;;19.80;65.20;;;;;;4999174;28;20527;-95
2023/03/23 04:05:44;;;;;;;1.10;0.77;;;19.80;65.20;;;;;;4999078;28;20439;-95
2023/03/23 04:08:11;;;;;;;1.13;0.90;;;19.90;65.40;;;;;;4997700;28;20460;-95
2023/03/23 04:10:39;;;;;;;1.00;0.70;;;19.80;65.20;;;;;;4997454;28;20534;-95
2023/03/23 04:13:07;;;;;;;1.20;0.87;;;19.80;65.20;;;;;;4997394;28;20578;-95
2023/03/23 04:15:34;;;;;;;1.20;0.80;;;19.80;65.20;;;;;;4999192;28;20490;-95
2023/03/23 04:18:01;;;;;;;1.20;1.00;;;19.90;65.40;;;;;;4997820;28;20458;-94
2023/03/23 04:20:28;;;;;;;1.30;1.00;;;19.80;65.20;;;;;;4998118;28;20483;-94
2023/03/23 04:22:55;;;;;;;1.00;0.70;;;19.80;65.20;;;;;;4998857;28;21000;-94
2023/03/23 04:25:22;;;;;;;0.90;0.70;;;19.80;65.20;;;;;;4997519;28;20448;-95
2023/03/23 04:27:52;;;;;;;1.10;0.70;;;19.80;65.20;;;;;;4999372;28;20961;-94
2023/03/23 04:30:22;;;;;;;1.10;0.80;;;19.80;65.20;;;;;;5002084;28;20776;-95
2023/03/23 04:32:51;;;;;;;1.00;0.70;;;19.80;65.20;;;;;;4998477;28;20550;-95
2023/03/23 04:35:21;;;;;;;1.20;0.80;;;19.80;65.20;;;;;;4998488;28;20450;-95
2023/03/23 04:41:10;;;;;;;1.00;0.80;;;19.80;65.20;;;;;;4996954;28;20496;-95
2023/03/23 04:43:41;;;;;;;1.00;0.70;;;19.80;65.30;;;;;;4996735;28;20535;-94
2023/03/23 04:46:10;;;;;;;1.10;0.90;;;19.80;65.30;;;;;;4998661;28;20462;-94
2023/03/23 04:48:38;;;;;;;1.10;0.80;;;19.80;65.20;;;;;;4982462;28;20508;-94
2023/03/23 04:51:06;;;;;;;1.00;0.70;;;19.80;65.20;;;;;;4999201;28;20818;-94
2023/03/23 04:53:34;;;;;;;1.00;0.73;;;19.80;65.20;;;;;;4996322;28;20585;-94
2023/03/23 04:56:01;;;;;;;1.00;0.70;;;19.80;65.20;;;;;;4996215;28;20444;-94
2023/03/23 04:58:29;;;;;;;1.20;0.90;;;19.80;65.20;;;;;;4995467;28;20453;-94
2023/03/23 05:00:56;;;;;;;1.00;0.80;;;19.80;65.20;;;;;;4996982;28;20440;-94
2023/03/23 05:03:25;;;;;;;1.50;0.70;;;19.80;65.20;;;;;;4996319;28;20459;-94
2023/03/23 05:05:53;;;;;;;1.00;0.70;;;19.90;65.30;;;;;;4995951;28;20454;-94
2023/03/23 05:08:20;;;;;;;1.10;0.80;;;19.80;65.20;;;;;;4997266;28;20460;-94
2023/03/23 05:10:55;;;;;;;1.00;0.73;;;19.80;65.20;;;;;;4995919;28;20541;-94
2023/03/23 05:13:22;;;;;;;1.30;0.97;;;19.80;65.20;;;;;;4996638;28;21065;-94
2023/03/23 05:15:49;;;;;;;1.00;0.70;;;19.80;65.20;;;;;;4998495;28;20458;-95
2023/03/23 05:18:17;;;;;;;1.00;0.80;;;19.80;65.20;;;;;;4997146;28;21004;-94
2023/03/23 05:20:46;;;;;;;1.10;0.80;;;19.80;65.20;;;;;;4996356;28;20463;-94
2023/03/23 05:23:14;;;;;;;1.10;1.00;;;19.80;65.20;;;;;;4996126;28;20452;-94
2023/03/23 05:25:41;;;;;;;1.07;0.73;;;19.80;66.00;;;;;;4997445;28;20952;-94
2023/03/23 05:28:08;;;;;;;1.13;0.80;;;19.80;65.20;;;;;;4997811;28;20455;-95
2023/03/23 05:30:36;;;;;;;1.10;0.90;;;19.80;65.30;;;;;;5000080;28;20949;-94
2023/03/23 05:33:03;;;;;;;1.00;0.80;;;19.80;65.20;;;;;;5019120;28;20486;-94
2023/03/23 05:35:31;;;;;;;1.10;0.80;;;19.80;65.20;;;;;;5014565;28;20803;-94
2023/03/23 05:38:00;;;;;;;1.10;0.90;;;19.80;65.20;;;;;;4997866;28;20531;-94
2023/03/23 05:40:28;;;;;;;1.00;0.70;;;19.80;65.20;;;;;;4995819;28;20460;-94
2023/03/23 05:42:57;;;;;;;1.83;1.00;;;19.80;65.10;;;;;;4995743;28;20547;-94
2023/03/23 05:45:26;;;;;;;1.20;0.93;;;19.80;65.20;;;;;;4996476;28;20444;-94
2023/03/23 05:47:53;;;;;;;1.10;0.90;;;19.80;65.20;;;;;;4997711;28;20436;-94
2023/03/23 05:50:21;;;;;;;1.20;0.90;;;19.80;65.10;;;;;;4998856;28;20471;-94
2023/03/23 05:52:48;;;;;;;1.07;0.87;;;19.80;65.10;;;;;;4999353;28;20834;-94
2023/03/23 05:58:39;;;;;;;1.20;0.90;;;19.80;65.10;;;;;;4999334;28;20487;-94
2023/03/23 06:01:08;;;;;;;1.10;0.80;;;19.70;65.20;;;;;;4998535;28;20539;-94
2023/03/23 06:03:35;;;;;;;1.30;0.90;;;19.80;65.20;;;;;;4998701;28;20488;-94
2023/03/23 06:06:02;;;;;;;1.00;0.80;;;19.80;65.40;;;;;;4999372;28;20491;-95
2023/03/23 06:08:30;;;;;;;1.00;0.70;;;19.90;65.30;;;;;;4998428;28;20924;-94
2023/03/23 06:10:57;;;;;;;1.00;0.70;;;19.80;65.10;;;;;;4999430;28;20566;-94
2023/03/23 06:13:24;;;;;;;1.00;0.70;;;19.80;65.10;;;;;;4998690;28;20509;-94
2023/03/23 06:15:57;;;;;;;1.40;1.00;;;19.80;65.10;;;;;;4980855;28;20534;-94
2023/03/23 06:18:24;;;;;;;1.00;0.70;;;19.80;65.20;;;;;;5000044;28;20444;-94
2023/03/23 06:20:51;;;;;;;1.50;0.70;;;19.80;65.10;;;;;;4999554;28;20479;-94
2023/03/23 06:23:18;;;;;;;1.50;0.90;;;19.80;65.10;;;;;;5000058;28;20444;-94
2023/03/23 06:25:47;;;;;;;1.00;0.83;;;19.80;65.10;;;;;;4997931;28;20446;-94
2023/03/23 06:28:15;;;;;;;1.00;0.70;;;19.80;65.10;;;;;;4997480;28;20447;-94
2023/03/23 06:30:42;;;;;;;1.00;0.70;;;19.80;65.10;;;;;;4997881;28;20495;-94
2023/03/23 06:33:12;;;;;;;1.20;0.90;;;19.90;65.30;;;;;;5007769;28;20468;-94
2023/03/23 06:35:38;;;;;;;1.00;0.70;;;19.80;65.10;;;;;;5021963;28;20452;-94
2023/03/23 06:38:07;;;;;;;1.13;0.90;;;19.80;65.20;;;;;;5021968;28;20432;-95
2023/03/23 06:40:35;;;;;;;1.07;0.90;;;19.90;65.20;;;;;;5017729;28;20801;-95
2023/03/23 06:43:03;;;;;;;1.10;0.80;;;19.80;65.10;;;;;;4998724;28;20463;-94
2023/03/23 06:45:30;;;;;;;1.00;0.83;;;19.70;65.00;;;;;;4999126;28;20456;-92
2023/03/23 06:47:57;;;;;;;1.20;0.90;;;19.70;65.10;;;;;;5001020;28;20456;-95
2023/03/23 06:50:30;;;;;;;2.23;0.87;;;19.80;65.20;;;;;;5000079;28;20479;-95
2023/03/23 06:52:57;;;;;;;1.80;1.00;;;19.80;65.20;;;;;;4999553;28;20654;-94
2023/03/23 06:55:24;;;;;;;1.20;0.70;;;19.80;65.30;;;;;;5001513;28;20474;-94
2023/03/23 06:57:52;;;;;;;1.30;0.80;;;19.80;65.20;;;;;;4998931;28;20845;-95
2023/03/23 07:00:19;;;;;;;1.10;0.80;;;19.80;65.10;;;;;;4999803;28;20521;-95
2023/03/23 07:02:48;;;;;;;1.50;0.77;;;19.80;65.10;;;;;;4999009;28;20477;-95
2023/03/23 07:08:38;;;;;;;1.50;0.80;;;19.80;65.00;;;;;;5000630;28;20451;-95
2023/03/23 07:11:06;;;;;;;1.73;0.80;;;19.80;65.30;;;;;;4997701;28;20522;-95
2023/03/23 07:13:33;;;;;;;1.83;0.97;;;19.80;65.20;;;;;;4997995;28;20482;-95
2023/03/23 07:16:00;;;;;;;1.10;0.87;;;19.80;65.20;;;;;;4997664;28;20783;-95
2023/03/23 07:18:28;;;;;;;1.60;0.90;;;19.90;65.50;;;;;;4999247;28;20475;-95
2023/03/23 07:20:55;;;;;;;2.47;1.13;;;19.90;65.50;;;;;;4997857;28;20826;-95
2023/03/23 07:23:22;;;;;;;1.00;0.70;;;19.90;65.50;;;;;;4998467;28;20452;-95
2023/03/23 07:25:51;;;;;;;1.40;1.00;;;19.90;65.50;;;;;;4998978;28;20531;-95
2023/03/23 07:28:18;;;;;;;1.60;0.80;;;19.80;65.40;;;;;;4997772;28;20966;-95
2023/03/23 07:30:45;;;;;;;1.20;0.80;;;19.90;65.60;;;;;;4999073;28;20460;-95
2023/03/23 07:33:13;;;;;;;1.70;1.20;;;19.90;65.60;;;;;;4997426;28;20550;-95
2023/03/23 07:35:41;;;;;;;1.33;0.80;;;19.90;65.60;;;;;;4999539;28;20553;-96
2023/03/23 07:38:08;;;;;;;1.17;0.90;;;19.90;65.60;;;;;;4998618;28;20911;-95
2023/03/23 07:40:36;;;;;;;1.33;0.90;;;19.70;65.30;;;;;;4998540;28;20499;-95
2023/03/23 07:43:05;;;;;;;1.00;0.80;;;19.90;65.50;;;;;;4997073;28;20542;-94
2023/03/23 07:45:32;;;;;;;1.03;0.80;;;19.90;65.50;;;;;;4997044;28;20455;-95
2023/03/23 07:51:22;;;;;;;1.47;1.03;;;19.90;65.40;;;;;;4998803;28;20420;-94
2023/03/23 07:53:49;;;;;;;1.20;0.90;;;20.00;65.80;;;;;;5001844;28;20511;-93
2023/03/23 08:03:24;;;;;;;1.53;0.87;;;19.90;65.80;;;;;;4964050;28;20544;-96
2023/03/23 08:05:51;;;;;;;1.10;0.90;;;20.00;66.10;;;;;;4964192;28;20444;-92
2023/03/23 08:08:25;;;;;;;1.43;0.80;;;19.90;65.90;;;;;;4969675;28;20461;-94
2023/03/23 08:10:52;;;;;;;1.10;0.80;;;19.90;65.90;;;;;;5203849;23;20566;-90
2023/03/23 08:13:19;;;;;;;3.20;1.00;;;19.90;65.80;;;;;;4981085;28;20457;-92
2023/03/23 08:58:43;;;;;;;2.37;0.90;;;19.80;66.50;;;;;;4914251;29;20514;-85
2023/03/23 09:01:10;;;;;;;3.60;1.80;;;19.80;66.60;;;;;;4936043;29;20446;-85
2023/03/23 09:03:38;;;;;;;2.37;1.20;;;19.80;66.30;;;;;;4936114;29;20529;-85
2023/03/23 09:06:08;;;;;;;3.20;0.97;;;19.80;66.10;;;;;;4935922;29;20450;-85
2023/03/23 09:08:37;;;;;;;2.57;1.20;;;19.90;66.20;;;;;;4936641;29;20445;-88
2023/03/23 09:11:06;;;;;;;1.80;1.30;;;19.90;66.10;;;;;;4942483;29;21077;-91
2023/03/23 09:13:34;;;;;;;2.10;1.30;;;19.90;66.20;;;;;;4942410;29;20455;-85
2023/03/23 09:16:04;;;;;;;1.30;1.10;;;19.90;66.40;;;;;;4943951;29;20451;-89
2023/03/23 09:18:33;;;;;;;2.70;1.20;;;19.90;66.10;;;;;;4941362;29;20454;-90
2023/03/23 09:21:01;;;;;;;2.03;1.07;;;19.90;66.20;;;;;;4940586;29;20449;-93
2023/03/23 09:23:28;;;;;;;1.40;0.90;;;19.90;66.90;;;;;;4942378;29;20505;-92
2023/03/23 09:25:55;;;;;;;2.23;1.27;;;19.90;66.00;;;;;;4944607;29;20446;-92
2023/03/23 09:28:22;;;;;;;3.93;1.20;;;19.90;66.00;;;;;;4945165;29;20442;-92
2023/03/23 09:30:51;;;;;;;4.60;1.17;;;19.90;66.00;;;;;;4944560;29;20485;-93
2023/03/23 09:33:19;;;;;;;1.90;1.03;;;19.90;66.00;;;;;;4944166;29;20458;-94
2023/03/23 09:35:46;;;;;;;2.20;1.50;;;19.90;66.10;;;;;;4943780;29;20506;-93
2023/03/23 09:38:13;;;;;;;3.70;1.77;;;19.90;66.10;;;;;;4946674;29;20506;-88
2023/03/23 09:40:48;;;;;;;1.90;1.30;;;19.90;66.20;;;;;;4945593;29;20450;-88
2023/03/23 09:43:35;;;;;;;2.40;1.30;;;19.90;66.40;;;;;;4942305;29;20438;-85
2023/03/23 09:46:16;;;;;;;4.93;1.30;;;19.90;66.50;;;;;;4948185;29;20457;-84
2023/03/23 09:48:51;;;;;;;2.97;1.67;;;19.90;66.40;;;;;;4964385;28;20456;-85
2023/03/23 09:51:32;;;;;;;7.10;1.87;;;19.90;66.40;;;;;;4964452;28;20442;-85
2023/03/23 09:54:04;;;;;;;4.30;1.90;;;19.90;66.40;;;;;;4950582;29;20549;-85
2023/03/23 09:56:33;;;;;;;4.73;1.37;;;19.90;66.40;;;;;;4939800;29;20934;-84
2023/03/23 09:59:05;;;;;;;2.13;1.47;;;19.90;66.30;;;;;;4940043;29;20496;-84
2023/03/23 10:01:36;;;;;;;2.70;1.10;;;19.90;66.50;;;;;;4939561;29;20582;-84
2023/03/23 10:04:11;;;;;;;1.77;1.37;;;19.90;66.50;;;;;;4939751;29;20448;-84
2023/03/23 10:06:38;;;;;;;1.60;1.10;;;19.90;66.50;;;;;;4938978;29;20456;-89
2023/03/23 10:09:06;;;;;;;2.23;1.00;;;19.90;66.60;;;;;;4938788;29;20460;-84
2023/03/23 10:11:45;;;;;;;2.53;1.10;;;19.90;66.50;;;;;;4938308;29;20559;-84
2023/03/23 10:14:28;;;;;;;2.63;1.33;;;19.90;66.50;;;;;;4938273;29;20486;-84
2023/03/23 10:17:03;;;;;;;4.50;1.60;;;19.90;66.50;;;;;;4938255;29;21207;-87
2023/03/23 10:19:37;;;;;;;1.60;1.40;;;19.80;66.70;;;;;;4939142;29;20471;-84
2023/03/23 10:22:07;;;;;;;3.43;1.47;;;19.90;66.80;;;;;;4939010;29;20994;-83
2023/03/23 10:24:36;;;;;;;3.67;1.57;;;19.90;66.70;;;;;;4939134;29;20449;-84
2023/03/23 10:27:14;;;;;;;2.00;1.40;;;19.80;66.60;;;;;;4939758;29;20439;-84
2023/03/23 10:29:46;;;;;;;1.70;1.20;;;19.80;66.70;;;;;;4940121;29;20443;-85
2023/03/23 10:32:16;;;;;;;3.27;1.63;;;19.90;66.70;;;;;;4939506;29;20447;-84
2023/03/23 10:34:51;;;;;;;1.83;1.20;;;19.80;66.60;;;;;;4939319;29;20481;-84
2023/03/23 10:37:21;;;;;;;1.70;1.10;;;19.80;66.80;;;;;;4940000;29;20450;-89
2023/03/23 10:39:51;;;;;;;2.53;1.53;;;19.80;66.80;;;;;;4940708;29;20484;-83
2023/03/23 10:42:27;;;;;;;1.80;1.30;;;19.80;66.70;;;;;;4942139;29;20525;-83
2023/03/23 10:44:56;;;;;;;1.63;1.27;;;19.80;66.80;;;;;;4957922;29;20454;-83
2023/03/23 10:47:24;;;;;;;2.10;1.20;;;19.80;66.70;;;;;;4950707;29;20455;-90
2023/03/23 10:49:55;;;;;;;3.27;1.30;;;19.80;66.70;;;;;;4938991;29;20483;-90
2023/03/23 10:52:34;;;;;;;3.73;1.73;;;19.80;66.80;;;;;;4938506;29;20938;-84
2023/03/23 10:55:05;;;;;;;3.50;1.40;;;19.80;66.80;;;;;;4938413;29;20573;-84
2023/03/23 10:57:34;;;;;;;2.30;1.03;;;19.80;66.80;;;;;;4938512;29;20447;-84
2023/03/23 11:00:06;;;;;;;1.80;1.27;;;19.80;66.80;;;;;;4938532;29;20447;-83
2023/03/23 11:02:38;;;;;;;1.70;1.30;;;19.80;66.70;;;;;;4938535;29;20453;-90
2023/03/23 11:05:14;;;;;;;3.07;1.13;;;19.80;66.70;;;;;;4938460;29;20498;-88
2023/03/23 11:07:41;;;;;;;1.30;1.20;;;19.80;66.70;;;;;;4938528;29;20443;-90
2023/03/23 11:10:18;;;;;;;1.67;1.07;;;19.80;66.70;;;;;;4938110;29;20997;-84
2023/03/23 11:12:47;;;;;;;2.07;1.40;;;19.90;66.60;;;;;;4938443;29;21023;-84
2023/03/23 11:15:26;;;;;;;4.20;1.60;;;19.80;66.50;;;;;;4938278;29;20493;-84
2023/03/23 11:18:04;;;;;;;2.53;1.20;;;19.90;66.60;;;;;;4938128;29;20452;-88
2023/03/23 11:20:37;;;;;;;1.40;0.97;;;19.80;66.50;;;;;;4938247;29;20474;-83
2023/03/23 11:23:11;;;;;;;2.53;1.30;;;19.80;66.40;;;;;;4937859;29;20455;-83
2023/03/23 11:25:56;;;;;;;2.10;1.20;;;19.80;66.50;;;;;;4938540;29;20533;-84
2023/03/23 11:28:28;;;;;;;1.40;1.07;;;19.80;66.60;;;;;;4938452;29;20922;-84
2023/03/23 11:30:56;;;;;;;1.40;1.10;;;19.80;66.60;;;;;;4938004;29;20784;-83
2023/03/23 11:33:25;;;;;;;3.20;1.10;;;19.80;66.50;;;;;;4938022;29;20468;-89
2023/03/23 11:35:55;;;;;;;3.33;1.30;;;19.80;66.70;;;;;;4938002;29;20522;-90
2023/03/23 11:38:25;;;;;;;2.73;1.10;;;19.90;66.80;;;;;;4938047;29;20475;-84
2023/03/23 11:40:53;;;;;;;1.77;1.30;;;19.80;66.80;;;;;;4937825;29;20447;-83
2023/03/23 11:43:22;;;;;;;2.10;1.30;;;19.80;66.80;;;;;;4937999;29;20443;-84
2023/03/23 11:45:56;;;;;;;1.93;1.00;;;19.80;66.80;;;;;;4937025;29;20439;-90
2023/03/23 11:48:30;;;;;;;1.63;1.13;;;19.90;66.90;;;;;;4937861;29;20447;-83
2023/03/23 11:51:03;;;;;;;3.30;1.50;;;19.80;66.80;;;;;;4937719;29;20451;-84
2023/03/23 11:53:40;;;;;;;1.87;1.20;;;19.80;66.70;;;;;;4937728;29;20457;-83
2023/03/23 11:56:18;;;;;;;1.70;1.37;;;19.80;66.70;;;;;;4937821;29;21035;-83
2023/03/23 11:58:45;;;;;;;2.73;1.10;;;19.80;66.70;;;;;;4937524;29;20468;-84
2023/03/23 12:01:33;;;;;;;1.43;1.00;;;19.80;66.70;;;;;;4937321;29;20483;-84
2023/03/23 12:04:21;;;;;;;1.83;1.27;;;19.80;66.80;;;;;;4937616;29;20447;-84
2023/03/23 12:06:57;;;;;;;1.93;1.00;;;19.80;66.80;;;;;;4937597;29;20802;-84
2023/03/23 12:09:37;;;;;;;1.77;0.90;;;19.80;66.70;;;;;;4937144;29;20448;-87
2023/03/23 12:12:15;;;;;;;2.13;1.17;;;19.80;66.70;;;;;;4937539;29;20490;-90
2023/03/23 12:14:52;;;;;;;2.63;1.23;;;19.80;66.80;;;;;;4937285;29;20485;-84
2023/03/23 12:17:30;;;;;;;3.50;1.43;;;19.80;66.80;;;;;;4937264;29;20498;-90
2023/03/23 12:20:12;;;;;;;1.43;0.97;;;19.80;66.70;;;;;;4937400;29;20473;-84
2023/03/23 12:22:58;;;;;;;1.73;1.00;;;19.80;66.70;;;;;;4938400;29;20437;-84
2023/03/23 12:25:48;;;;;;;1.80;1.40;;;19.80;66.70;;;;;;4937817;29;20933;-84
2023/03/23 12:28:23;;;;;;;1.97;1.10;;;20.00;66.90;;;;;;4937467;29;20447;-84
2023/03/23 12:30:56;;;;;;;2.80;1.17;;;19.80;66.70;;;;;;4937661;29;20508;-85
2023/03/23 12:33:34;;;;;;;1.60;1.20;;;19.80;66.70;;;;;;4937477;29;20443;-86
2023/03/23 12:36:12;;;;;;;1.50;1.00;;;19.80;66.80;;;;;;4937890;29;20582;-89
2023/03/23 12:38:57;;;;;;;3.13;1.00;;;19.80;66.80;;;;;;4937375;29;20446;-85
2023/03/23 12:41:28;;;;;;;1.60;1.27;;;19.80;66.80;;;;;;4937031;29;20442;-88
2023/03/23 12:44:00;;;;;;;1.20;1.10;;;19.80;66.80;;;;;;4937478;29;20545;-84
2023/03/23 12:46:49;;;;;;;1.40;1.00;;;19.80;66.80;;;;;;4937256;29;20522;-84
2023/03/23 12:49:21;;;;;;;1.70;1.00;;;19.80;66.80;;;;;;4937350;29;20496;-85
2023/03/23 12:51:55;;;;;;;1.67;1.23;;;19.80;66.90;;;;;;4937666;29;20533;-84
2023/03/23 12:54:31;;;;;;;1.70;1.20;;;19.80;66.80;;;;;;4937338;29;20797;-84
2023/03/23 12:57:07;;;;;;;1.97;0.90;;;19.80;66.90;;;;;;4937000;29;20942;-84
2023/03/23 12:59:40;;;;;;;1.20;0.90;;;19.80;67.70;;;;;;4937012;29;20449;-84
2023/03/23 13:02:15;;;;;;;2.27;0.90;;;19.80;66.80;;;;;;4937792;29;20537;-91
2023/03/23 13:04:45;;;;;;;2.37;1.10;;;19.80;66.70;;;;;;4936554;29;20450;-84
2023/03/23 13:07:17;;;;;;;1.40;1.10;;;19.80;66.70;;;;;;4936485;29;20542;-84
2023/03/23 13:09:53;;;;;;;1.70;1.10;;;19.80;66.70;;;;;;4936973;29;20838;-90
2023/03/23 13:12:20;;;;;;;1.50;1.00;;;19.80;66.30;;;;;;4937299;29;20972;-84
2023/03/23 13:14:56;;;;;;;2.00;1.10;;;19.80;66.40;;;;;;4937446;29;20821;-84
2023/03/23 13:17:33;;;;;;;1.60;1.10;;;19.80;66.30;;;;;;4938058;29;20841;-84
2023/03/23 13:20:47;;;;;;;1.50;1.23;;;20.00;66.60;;;;;;4938725;29;20829;-86
2023/03/23 13:23:18;;;;;;;1.83;1.10;;;19.90;66.40;;;;;;4958716;28;20449;-85
2023/03/23 13:25:54;;;;;;;2.40;1.10;;;19.80;66.50;;;;;;4954814;28;20497;-84
2023/03/23 13:28:26;;;;;;;1.10;0.80;;;19.90;66.80;;;;;;4936450;29;20449;-91
2023/03/23 13:30:57;;;;;;;1.20;1.00;;;19.80;66.60;;;;;;4936402;29;20450;-91
2023/03/23 13:33:25;;;;;;;1.30;1.10;;;19.90;66.70;;;;;;4936397;29;20451;-89
2023/03/23 13:35:52;;;;;;;1.50;1.07;;;19.90;66.70;;;;;;4936172;29;20577;-83
2023/03/23 13:38:22;;;;;;;1.50;0.87;;;19.90;66.70;;;;;;4936190;29;20453;-89
2023/03/23 13:40:51;;;;;;;1.50;0.97;;;19.90;66.70;;;;;;4936141;29;20461;-84
2023/03/23 13:43:28;;;;;;;1.40;1.00;;;19.90;66.90;;;;;;4936143;29;20453;-87
2023/03/23 13:45:55;;;;;;;1.10;0.80;;;19.90;67.00;;;;;;4936319;29;20457;-90
2023/03/23 13:48:24;;;;;;;2.07;1.00;;;19.90;67.00;;;;;;4936224;29;20471;-84
2023/03/23 13:50:55;;;;;;;1.33;1.20;;;19.90;67.00;;;;;;4935869;29;20824;-85
2023/03/23 13:53:28;;;;;;;1.00;0.80;;;19.90;67.10;;;;;;4936131;29;20482;-85
2023/03/23 13:56:08;;;;;;;3.10;0.77;;;19.90;66.90;;;;;;4936759;29;20478;-85
2023/03/23 13:58:46;;;;;;;1.30;1.00;;;19.90;67.10;;;;;;4935986;29;20499;-91
2023/03/23 14:01:17;;;;;;;1.07;0.80;;;19.90;67.00;;;;;;4935927;29;20449;-88
2023/03/23 14:03:50;;;;;;;1.43;1.10;;;19.90;67.10;;;;;;4936026;29;20430;-86
2023/03/23 14:06:20;;;;;;;1.30;0.90;;;19.90;67.30;;;;;;4936454;29;20435;-87
2023/03/23 14:08:51;;;;;;;1.73;1.20;;;19.90;67.40;;;;;;4936582;29;20449;-87
2023/03/23 14:11:24;;;;;;;1.30;0.90;;;19.90;67.60;;;;;;4939269;29;20470;-87
2023/03/23 14:14:04;;;;;;;1.10;0.87;;;19.90;67.50;;;;;;4939840;29;20810;-87
2023/03/23 14:16:39;;;;;;;2.83;1.30;;;19.90;67.50;;;;;;4939652;29;20493;-87
2023/03/23 14:19:18;;;;;;;1.30;0.90;;;19.90;67.60;;;;;;4939844;29;20461;-93
2023/03/23 14:21:51;;;;;;;1.67;0.83;;;19.90;67.90;;;;;;4941434;29;20801;-94